Date,TemperatureHighF,TemperatureAvgF,TemperatureLowF,DewpointHighF,DewpointAvgF,DewpointLowF,HumidityHigh,HumidityAvg,HumidityLow,PressureMaxIn,PressureMinIn,WindSpeedMaxMPH,WindSpeedAvgMPH,GustSpeedMaxMPH,PrecipitationSumIn
2013-1-1,52.0,45.7,40.0,-99.9,-99.9,-99.9,0,0,100,0.00,40.00,24,11,29,0.00
2013-1-2,60.0,51.6,45.0,-99.9,-99.9,-99.9,0,0,100,0.00,40.00,27,14,30,0.00
2013-1-3,64.0,54.8,49.0,-99.9,-99.9,-99.9,0,0,100,0.00,40.00,22,12,26,0.00
2013-1-4,60.0,50.4,43.0,-99.9,-99.9,-99.9,0,0,100,0.00,40.00,17,6,21,0.00
2013-1-5,62.0,48.9,41.0,-99.9,-99.9,-99.9,0,0,100,0.00,40.00,15,5,19,0.00
2013-1-6,53.0,47.5,44.0,-99.9,-99.9,-99.9,0,0,100,0.00,40.00,12,6,18,0.00
2013-1-7,68.0,50.1,40.0,-99.9,-99.9,-99.9,0,0,100,0.00,40.00,24,6,25,0.00
2013-1-8,76.0,57.2,44.0,-99.9,-99.9,-99.9,0,0,100,0.00,40.00,10,4,12,0.00
2013-1-9,72.0,60.7,55.0,-99.9,-99.9,-99.9,0,0,100,0.00,40.00,11,4,12,0.00
2013-1-10,51.0,47.7,41.0,-99.9,-99.9,-99.9,0,0,100,0.00,40.00,16,10,23,0.00
2013-1-11,50.0,42.3,36.0,-99.9,-99.9,-99.9,0,0,100,0.00,40.00,18,9,23,0.00
2013-1-12,53.0,42.2,32.0,-99.9,-99.9,-99.9,0,0,100,0.00,40.00,9,4,10,0.00
2013-1-13,53.0,41.4,30.0,-99.9,-99.9,-99.9,0,0,100,0.00,40.00,15,3,18,0.00
2013-1-14,50.0,39.9,32.0,-99.9,-99.9,-99.9,0,0,100,0.00,40.00,15,6,21,0.00
2013-1-15,58.0,47.8,36.0,-99.9,-99.9,-99.9,0,0,100,0.00,40.00,21,8,28,0.00
2013-1-16,64.0,54.1,45.0,-99.9,-99.9,-99.9,0,0,100,0.00,40.00,27,14,34,0.00
2013-1-17,69.0,62.5,55.0,-99.9,-99.9,-99.9,0,0,100,0.00,40.00,33,18,36,0.00
2013-1-18,72.0,60.7,54.0,-99.9,-99.9,-99.9,0,0,100,0.00,40.00,23,10,27,0.00
2013-1-19,71.0,58.7,54.0,-99.9,-99.9,-99.9,0,0,100,0.00,40.00,22,9,25,0.00
2013-1-20,75.0,59.0,51.0,-99.9,-99.9,-99.9,0,0,100,0.00,40.00,20,5,22,0.00
2013-1-21,74.0,61.2,53.0,-99.9,-99.9,-99.9,0,0,100,0.00,40.00,20,7,27,0.00
2013-1-22,76.0,62.0,54.0,-99.9,-99.9,-99.9,0,0,100,0.00,40.00,18,6,21,0.00
2013-1-23,76.0,64.5,58.0,-99.9,-99.9,-99.9,0,0,100,0.00,40.00,9,4,12,0.00
2013-1-24,66.0,59.3,54.0,-99.9,-99.9,-99.9,0,0,100,0.00,40.00,16,4,16,0.00
2013-1-25,61.0,58.5,54.0,-99.9,-99.9,-99.9,0,0,100,0.00,40.00,13,5,13,0.00
2013-1-26,65.0,59.6,55.0,-99.9,-99.9,-99.9,0,0,100,0.00,40.00,16,8,17,0.00
2013-1-27,58.0,53.6,46.0,-99.9,-99.9,-99.9,0,0,100,0.00,40.00,13,8,17,0.00
2013-1-28,54.0,46.8,40.0,-99.9,-99.9,-99.9,0,0,100,0.00,40.00,19,7,22,0.00
2013-1-29,57.0,48.2,39.0,-99.9,-99.9,-99.9,0,0,100,0.00,40.00,15,8,19,0.00
2013-1-30,68.0,55.8,46.0,-99.9,-99.9,-99.9,0,0,100,0.00,40.00,13,5,17,0.00
2013-1-31,73.0,62.6,51.0,-99.9,-99.9,-99.9,0,0,100,0.00,40.00,16,5,21,0.00
2013-2-1,73.0,58.2,51.0,-99.9,-99.9,-99.9,0,0,100,0.00,40.00,16,3,18,0.00
2013-2-2,75.0,64.4,58.0,-99.9,-99.9,-99.9,0,0,100,0.00,40.00,11,3,15,0.00
2013-2-3,74.0,61.4,55.0,-99.9,-99.9,-99.9,0,0,100,0.00,40.00,7,3,8,0.00
2013-2-4,76.0,61.1,49.0,-99.9,-99.9,-99.9,0,0,100,0.00,40.00,8,4,11,0.00
2013-2-5,72.0,59.9,49.0,-99.9,-99.9,-99.9,0,0,100,0.00,40.00,17,8,19,0.00
2013-2-6,65.0,53.5,47.0,-99.9,-99.9,-99.9,0,0,100,0.00,40.00,17,10,22,0.00
2013-2-7,68.0,54.5,46.0,-99.9,-99.9,-99.9,0,0,100,0.00,40.00,14,7,16,0.00
2013-2-8,48.0,42.6,39.0,-99.9,-99.9,-99.9,0,0,100,0.00,40.00,14,7,23,0.00
2013-2-9,51.0,44.6,37.0,-99.9,-99.9,-99.9,0,0,100,0.00,40.00,12,7,15,0.00
2013-2-10,51.0,46.3,39.0,-99.9,-99.9,-99.9,0,0,100,0.00,40.00,10,6,11,0.00
2013-2-11,61.0,47.5,36.0,-99.9,-99.9,-99.9,0,0,100,0.00,40.00,14,4,16,0.00
2013-2-12,67.0,49.4,39.0,-99.9,-99.9,-99.9,0,0,100,0.00,40.00,7,3,8,0.00
2013-2-13,73.0,55.8,42.0,-99.9,-99.9,-99.9,0,0,100,0.00,40.00,6,4,8,0.00
2013-2-14,75.0,61.2,44.0,-99.9,-99.9,-99.9,0,0,100,0.00,40.00,16,7,19,0.00
2013-2-15,73.0,64.7,60.0,-99.9,-99.9,-99.9,0,0,100,0.00,40.00,32,12,35,0.00
2013-2-16,79.0,64.5,54.0,-99.9,-99.9,-99.9,0,0,100,0.00,40.00,14,8,21,0.00
2013-2-17,72.0,59.7,47.0,-99.9,-99.9,-99.9,0,0,100,0.00,40.00,15,7,21,0.00
2013-2-18,69.0,56.4,45.0,-99.9,-99.9,-99.9,0,0,100,0.00,40.00,12,7,17,0.00
2013-2-19,51.0,46.9,43.0,-99.9,-99.9,-99.9,0,0,100,0.00,40.00,11,9,22,0.00
2013-2-20,54.0,44.2,38.0,-99.9,-99.9,-99.9,0,0,100,0.00,40.00,17,9,24,0.00
2013-2-21,57.0,46.4,42.0,-99.9,-99.9,-99.9,0,0,100,0.00,40.00,13,5,18,0.00
2013-2-22,66.0,49.8,36.0,-99.9,-99.9,-99.9,0,0,100,0.00,40.00,8,5,10,0.00
2013-2-23,64.0,52.1,45.0,-99.9,-99.9,-99.9,0,0,100,0.00,40.00,15,7,21,0.00
2013-2-24,62.0,52.4,44.0,-99.9,-99.9,-99.9,0,0,100,0.00,40.00,27,11,27,0.00
2013-2-25,69.0,54.0,40.0,-99.9,-99.9,-99.9,0,0,100,0.00,40.00,10,4,15,0.00
2013-2-26,66.0,52.1,40.0,-99.9,-99.9,-99.9,0,0,100,0.00,40.00,13,6,27,0.00
2013-2-27,67.0,55.4,47.0,-99.9,-99.9,-99.9,0,0,100,0.00,40.00,14,6,24,0.00
2013-2-28,73.0,60.5,54.0,-99.9,-99.9,-99.9,0,0,100,0.00,40.00,19,7,25,0.00
2013-3-1,81.0,66.3,54.0,-99.9,-99.9,-99.9,0,0,100,0.00,40.00,29,9,29,0.00
2013-3-2,83.0,70.7,58.0,-99.9,-99.9,-99.9,0,0,100,0.00,40.00,10,5,18,0.00
2013-3-3,75.0,65.9,58.0,-99.9,-99.9,-99.9,0,0,100,0.00,40.00,16,9,19,0.00
2013-3-4,68.0,56.9,47.0,-99.9,-99.9,-99.9,0,0,100,0.00,40.00,12,8,16,0.00
2013-3-5,76.0,59.4,51.0,-99.9,-99.9,-99.9,0,0,100,0.00,40.00,16,8,21,0.00
2013-3-6,65.0,55.1,47.0,-99.9,-99.9,-99.9,0,0,100,0.00,40.00,20,9,20,0.00
2013-3-7,56.0,51.8,46.0,-99.9,-99.9,-99.9,0,0,100,0.00,40.00,12,7,16,0.00
2013-3-8,48.0,44.9,41.0,-99.9,-99.9,-99.9,0,0,100,0.00,40.00,16,7,22,0.00
2013-3-9,61.0,50.2,44.0,-99.9,-99.9,-99.9,0,0,100,0.00,40.00,13,7,16,0.00
2013-3-10,76.0,61.5,43.0,-99.9,-99.9,-99.9,0,0,100,0.00,40.00,20,6,23,0.00
2013-3-11,83.0,64.3,46.0,-99.9,-99.9,-99.9,0,0,100,0.00,40.00,10,4,13,0.00
2013-3-12,86.0,67.2,51.0,-99.9,-99.9,-99.9,0,0,100,0.00,40.00,18,6,18,0.00
2013-3-13,92.0,74.7,59.0,-99.9,-99.9,-99.9,0,0,100,0.00,40.00,18,5,25,0.00
2013-3-14,95.0,74.6,62.0,-99.9,-99.9,-99.9,0,0,100,0.00,40.00,11,4,14,0.00
2013-3-15,90.0,77.7,66.0,-99.9,-99.9,-99.9,0,0,100,0.00,40.00,11,7,18,0.00
2013-3-16,80.0,68.0,62.0,-99.9,-99.9,-99.9,0,0,100,0.00,40.00,17,10,19,0.00
2013-3-17,78.0,64.0,53.0,-99.9,-99.9,-99.9,0,0,100,0.00,40.00,20,9,22,0.00
2013-3-18,69.0,59.6,51.0,-99.9,-99.9,-99.9,0,0,100,0.00,40.00,20,11,23,0.00
2013-3-19,75.0,60.9,52.0,-99.9,-99.9,-99.9,0,0,100,0.00,40.00,16,10,19,0.00
2013-3-20,74.0,65.3,56.0,-99.9,-99.9,-99.9,0,0,100,0.00,40.00,16,11,21,0.00
2013-3-21,77.0,63.7,52.0,-99.9,-99.9,-99.9,0,0,100,0.00,40.00,17,10,21,0.00
2013-3-22,80.0,63.3,48.0,-99.9,-99.9,-99.9,0,0,100,0.00,40.00,16,10,18,0.00
2013-3-23,81.0,66.3,50.0,-99.9,-99.9,-99.9,0,0,100,0.00,40.00,23,6,23,0.00
2013-3-24,85.0,67.8,52.0,-99.9,-99.9,-99.9,0,0,100,0.00,40.00,16,4,19,0.00
2013-3-25,87.0,69.0,54.0,-99.9,-99.9,-99.9,0,0,100,0.00,40.00,8,4,12,0.00
2013-3-26,78.0,65.0,57.0,-99.9,-99.9,-99.9,0,0,100,0.00,40.00,16,9,21,0.00
2013-3-27,74.0,61.4,54.0,-99.9,-99.9,-99.9,0,0,100,0.00,40.00,15,11,19,0.00
2013-3-28,80.0,63.9,52.0,-99.9,-99.9,-99.9,0,0,100,0.00,40.00,18,9,18,0.00
2013-3-29,88.0,69.2,56.0,-99.9,-99.9,-99.9,0,0,100,0.00,40.00,12,6,16,0.00
2013-3-30,82.0,72.8,58.0,-99.9,-99.9,-99.9,0,0,100,0.00,40.00,13,8,19,0.00
2013-3-31,73.0,61.8,54.0,-99.9,-99.9,-99.9,0,0,100,0.00,40.00,14,9,20,0.00
2013-4-1,69.0,60.4,50.0,-99.9,-99.9,-99.9,0,0,100,0.00,40.00,16,10,24,0.00
2013-4-2,80.0,64.4,52.0,-99.9,-99.9,-99.9,0,0,100,0.00,40.00,14,7,17,0.00
2013-4-3,91.0,72.9,57.0,-99.9,-99.9,-99.9,0,0,100,0.00,40.00,15,6,19,0.00
2013-4-4,81.0,70.9,62.0,-99.9,-99.9,-99.9,0,0,100,0.00,40.00,14,10,21,0.00
2013-4-5,72.0,61.1,54.0,-99.9,-99.9,-99.9,0,0,100,0.00,40.00,17,11,19,0.00
2013-4-6,76.0,62.6,58.0,-99.9,-99.9,-99.9,0,0,100,0.00,40.00,19,9,19,0.00
2013-4-7,79.0,64.2,54.0,-99.9,-99.9,-99.9,0,0,100,0.00,40.00,22,10,22,0.00
2013-4-8,59.0,54.7,50.0,-99.9,-99.9,-99.9,0,0,100,0.00,40.00,23,14,37,0.00
2013-4-9,76.0,59.1,47.0,-99.9,-99.9,-99.9,0,0,100,0.00,40.00,20,8,27,0.00
2013-4-10,91.0,64.1,50.0,-99.9,-99.9,-99.9,0,0,100,0.00,40.00,10,4,19,0.00
2013-4-11,82.0,67.9,52.0,-99.9,-99.9,-99.9,0,0,100,0.00,40.00,16,8,21,0.00
2013-4-12,91.0,65.2,54.0,-99.9,-99.9,-99.9,0,0,100,0.00,40.00,11,7,17,0.00
2013-4-13,80.0,66.0,55.0,-99.9,-99.9,-99.9,0,0,100,0.00,40.00,18,11,23,0.00
2013-4-14,60.0,55.0,52.0,-99.9,-99.9,-99.9,0,0,100,0.00,40.00,19,13,21,0.00
2013-4-15,62.0,55.5,50.0,-99.9,-99.9,-99.9,0,0,100,0.00,40.00,19,12,26,0.00
2013-4-16,65.0,54.4,44.0,-99.9,-99.9,-99.9,0,0,100,0.00,40.00,18,10,24,0.00
2013-4-17,75.0,57.1,42.0,-99.9,-99.9,-99.9,0,0,100,0.00,40.00,16,7,21,0.00
2013-4-18,78.0,63.1,48.0,-99.9,-99.9,-99.9,0,0,100,0.00,40.00,25,9,30,0.00
2013-4-19,88.0,72.8,58.0,-99.9,-99.9,-99.9,0,0,100,0.00,40.00,21,8,22,0.00
2013-4-20,94.0,72.7,60.0,-99.9,-99.9,-99.9,0,0,100,0.00,40.00,12,6,18,0.00
2013-4-21,94.0,76.2,61.0,-99.9,-99.9,-99.9,0,0,100,0.00,40.00,13,6,20,0.00
2013-4-22,88.0,71.2,58.0,-99.9,-99.9,-99.9,0,0,100,0.00,40.00,14,9,20,0.00
2013-4-23,91.0,68.7,53.0,-99.9,-99.9,-99.9,0,0,100,0.00,40.00,23,10,28,0.00
2013-4-24,83.0,62.1,54.0,-99.9,-99.9,-99.9,0,0,100,0.00,40.00,18,12,20,0.00
2013-4-25,70.0,60.4,52.0,-99.9,-99.9,-99.9,0,0,100,0.00,40.00,15,9,19,0.00
2013-4-26,90.0,71.5,53.0,-99.9,-99.9,-99.9,0,0,100,0.00,40.00,12,8,17,0.00
2013-4-27,94.0,78.5,63.0,-99.9,-99.9,-99.9,0,0,100,0.00,40.00,18,9,18,0.00
2013-4-28,95.0,78.5,63.0,-99.9,-99.9,-99.9,0,0,100,0.00,40.00,19,7,19,0.00
2013-4-29,98.0,78.6,65.0,-99.9,-99.9,-99.9,0,0,100,0.00,40.00,16,8,22,0.00
2013-4-30,81.0,68.3,54.0,-99.9,-99.9,-99.9,0,0,100,0.00,40.00,20,13,25,0.00
2013-5-1,94.0,70.2,56.0,-99.9,-99.9,-99.9,0,0,100,0.00,40.00,24,11,26,0.00
2013-5-2,90.0,79.5,69.0,-99.9,-99.9,-99.9,0,0,100,0.00,40.00,31,15,34,0.00
2013-5-3,94.0,74.7,62.0,-99.9,-99.9,-99.9,0,0,100,0.00,40.00,16,5,23,0.00
2013-5-4,87.0,73.1,58.0,-99.9,-99.9,-99.9,0,0,100,0.00,40.00,20,10,24,0.00
2013-5-5,73.0,59.6,53.0,-99.9,-99.9,-99.9,0,0,100,0.00,40.00,15,12,22,0.00
2013-5-6,62.0,59.3,54.0,-99.9,-99.9,-99.9,0,0,100,0.00,40.00,12,8,16,0.00
2013-5-7,67.0,59.4,54.0,-99.9,-99.9,-99.9,0,0,100,0.00,40.00,13,8,17,0.00
2013-5-8,73.0,60.7,54.0,-99.9,-99.9,-99.9,0,0,100,0.00,40.00,11,7,19,0.00
2013-5-9,72.0,64.0,51.0,-99.9,-99.9,-99.9,0,0,100,0.00,40.00,15,9,18,0.00
2013-5-10,92.0,71.4,57.0,-99.9,-99.9,-99.9,0,0,100,0.00,40.00,11,7,16,0.00
2013-5-11,101.0,79.8,65.0,-99.9,-99.9,-99.9,0,0,100,0.00,40.00,19,6,22,0.00
2013-5-12,105.0,84.7,71.0,-99.9,-99.9,-99.9,0,0,100,0.00,40.00,15,5,21,0.00
2013-5-13,105.0,89.9,73.0,-99.9,-99.9,-99.9,0,0,100,0.00,40.00,15,6,20,0.00
2013-5-14,98.0,82.8,70.0,-99.9,-99.9,-99.9,0,0,100,0.00,40.00,18,10,22,0.00
2013-5-15,87.0,72.5,62.0,-99.9,-99.9,-99.9,0,0,100,0.00,40.00,17,11,21,0.00
2013-5-16,85.0,64.0,54.0,-99.9,-99.9,-99.9,0,0,100,0.00,40.00,21,13,25,0.00
2013-5-17,80.0,66.9,57.0,-99.9,-99.9,-99.9,0,0,100,0.00,40.00,16,10,26,0.00
2013-5-18,82.0,66.5,58.0,-99.9,-99.9,-99.9,0,0,100,0.00,40.00,16,9,20,0.00
2013-5-19,91.0,72.1,60.0,-99.9,-99.9,-99.9,0,0,100,0.00,40.00,17,8,18,0.00
2013-5-20,100.0,79.1,63.0,-99.9,-99.9,-99.9,0,0,100,0.00,40.00,15,6,22,0.00
2013-5-21,92.0,81.4,66.0,-99.9,-99.9,-99.9,0,0,100,0.00,40.00,16,9,16,0.00
2013-5-22,85.0,68.2,58.0,-99.9,-99.9,-99.9,0,0,100,0.00,40.00,21,14,23,0.00
2013-5-23,80.0,65.4,55.0,-99.9,-99.9,-99.9,0,0,100,0.00,40.00,16,11,23,0.00
2013-5-24,84.0,67.9,56.0,-99.9,-99.9,-99.9,0,0,100,0.00,40.00,20,11,21,0.00
2013-5-25,82.0,69.7,53.0,-99.9,-99.9,-99.9,0,0,100,0.00,40.00,16,11,21,0.00
2013-5-26,81.0,67.5,56.0,-99.9,-99.9,-99.9,0,0,100,0.00,40.00,21,12,23,0.00
2013-5-27,84.0,69.8,57.0,-99.9,-99.9,-99.9,0,0,100,0.00,40.00,17,9,23,0.00
2013-5-28,79.0,67.1,58.0,-99.9,-99.9,-99.9,0,0,100,0.00,40.00,18,11,25,0.00
2013-5-29,94.0,74.4,59.0,-99.9,-99.9,-99.9,0,0,100,0.00,40.00,21,10,28,0.00
2013-5-30,94.0,78.9,64.0,-99.9,-99.9,-99.9,0,0,100,0.00,40.00,15,9,22,0.00
2013-5-31,102.0,80.1,62.0,-99.9,-99.9,-99.9,0,0,100,0.00,40.00,17,7,21,0.00
2013-6-1,110.0,86.0,73.0,-99.9,-99.9,-99.9,0,0,100,0.00,40.00,16,6,22,0.00
2013-6-2,96.0,79.4,65.0,-99.9,-99.9,-99.9,0,0,100,0.00,40.00,15,11,23,0.00
2013-6-3,91.0,70.2,53.0,-99.9,-99.9,-99.9,0,0,100,0.00,40.00,19,13,26,0.00
2013-6-4,89.0,71.9,61.0,-99.9,-99.9,-99.9,0,0,100,0.00,40.00,16,12,23,0.00
2013-6-5,92.0,74.3,62.0,-99.9,-99.9,-99.9,0,0,100,0.00,40.00,19,11,24,0.00
2013-6-6,96.0,79.7,68.0,-99.9,-99.9,-99.9,0,0,100,0.00,40.00,21,12,23,0.00
2013-6-7,98.0,80.4,64.0,-99.9,-99.9,-99.9,0,0,100,0.00,40.00,19,11,24,0.00
2013-6-8,102.0,82.8,66.0,-99.9,-99.9,-99.9,0,0,100,0.00,40.00,19,11,20,0.00
2013-6-9,94.0,83.3,64.0,-99.9,-99.9,-99.9,0,0,100,0.00,40.00,15,10,21,0.00
2013-6-10,91.0,74.7,58.0,-99.9,-99.9,-99.9,0,0,100,0.00,40.00,19,13,27,0.00
2013-6-11,102.0,82.6,67.0,-99.9,-99.9,-99.9,0,0,100,0.00,40.00,14,9,17,0.00
2013-6-12,93.0,82.4,67.0,-99.9,-99.9,-99.9,0,0,100,0.00,40.00,22,12,24,0.00
2013-6-13,94.0,75.6,64.0,-99.9,-99.9,-99.9,0,0,100,0.00,40.00,18,11,26,0.00
2013-6-14,97.0,81.9,64.0,-99.9,-99.9,-99.9,0,0,100,0.00,40.00,21,11,21,0.00
2013-6-15,93.0,74.1,64.0,-99.9,-99.9,-99.9,0,0,100,0.00,40.00,17,11,23,0.00
2013-6-16,91.0,77.5,64.0,-99.9,-99.9,-99.9,0,0,100,0.00,40.00,19,12,21,0.00
2013-6-17,98.0,84.1,67.0,-99.9,-99.9,-99.9,0,0,100,0.00,40.00,16,8,18,0.00
2013-6-18,94.0,79.5,67.0,-99.9,-99.9,-99.9,0,0,100,0.00,40.00,15,8,22,0.00
2013-6-19,94.0,76.4,62.0,-99.9,-99.9,-99.9,0,0,100,0.00,40.00,19,11,22,0.00
2013-6-20,88.0,74.4,65.0,-99.9,-99.9,-99.9,0,0,100,0.00,40.00,15,10,19,0.00
2013-6-22,94.0,85.6,69.0,-99.9,-99.9,-99.9,0,0,100,0.00,40.00,13,10,19,0.00
2013-6-23,87.0,73.6,62.0,-99.9,-99.9,-99.9,0,0,100,0.00,40.00,16,11,24,0.00
2013-6-24,83.0,67.7,58.0,-99.9,-99.9,-99.9,0,0,100,0.00,40.00,23,12,26,0.00
2013-6-25,93.0,76.0,63.0,-99.9,-99.9,-99.9,0,0,100,0.00,40.00,18,10,23,0.00
2013-6-26,102.0,85.1,71.0,-99.9,-99.9,-99.9,0,0,100,0.00,40.00,13,7,16,0.00
2013-6-27,106.0,88.0,76.0,-99.9,-99.9,-99.9,0,0,100,0.00,40.00,10,7,18,0.00
2013-6-28,106.0,91.9,80.0,-99.9,-99.9,-99.9,0,0,100,0.00,40.00,14,9,18,0.00
2013-6-29,111.0,94.0,83.0,-99.9,-99.9,-99.9,0,0,100,0.00,40.00,17,9,19,0.00
2013-6-30,112.0,93.1,85.0,-99.9,-99.9,-99.9,0,0,100,0.00,40.00,17,7,23,0.00
2013-7-1,105.0,92.2,82.0,-99.9,-99.9,-99.9,0,0,100,0.00,40.00,17,8,18,0.00
2013-7-2,103.0,89.0,79.0,-99.9,-99.9,-99.9,0,0,100,0.00,40.00,19,10,20,0.00
2013-7-3,103.0,89.8,82.0,-99.9,-99.9,-99.9,0,0,100,0.00,40.00,15,8,23,0.00
2013-7-4,106.0,91.6,76.0,-99.9,-99.9,-99.9,0,0,100,0.00,40.00,21,12,24,0.00
2013-7-5,103.0,88.8,76.0,-99.9,-99.9,-99.9,0,0,100,0.00,40.00,19,11,25,0.00
2013-7-6,98.0,82.4,74.0,-99.9,-99.9,-99.9,0,0,100,0.00,40.00,12,8,18,0.00
2013-7-7,104.0,88.1,73.0,-99.9,-99.9,-99.9,0,0,100,0.00,40.00,17,9,19,0.00
2013-7-8,109.0,90.9,76.0,-99.9,-99.9,-99.9,0,0,100,0.00,40.00,14,8,18,0.00
2013-7-9,105.0,91.4,83.0,-99.9,-99.9,-99.9,0,0,100,0.00,40.00,15,9,19,0.00
2013-7-10,92.0,84.8,80.0,-99.9,-99.9,-99.9,0,0,100,0.00,40.00,16,8,19,0.00
2013-7-11,84.0,80.0,74.0,-99.9,-99.9,-99.9,0,0,100,0.00,40.00,14,8,15,0.00
2013-7-12,97.0,79.9,70.0,-99.9,-99.9,-99.9,0,0,100,0.00,40.00,14,10,18,0.00
2013-7-13,102.0,88.7,69.0,-99.9,-99.9,-99.9,0,0,100,0.00,40.00,14,10,17,0.00
2013-7-14,105.0,86.2,76.0,-99.9,-99.9,-99.9,0,0,100,0.00,40.00,15,8,19,0.00
2013-7-15,101.0,85.2,76.0,-99.9,-99.9,-99.9,0,0,100,0.00,40.00,18,10,22,0.00
2013-7-16,99.0,81.5,73.0,-99.9,-99.9,-99.9,0,0,100,0.00,40.00,14,10,19,0.00
2013-7-17,101.0,83.3,69.0,-99.9,-99.9,-99.9,0,0,100,0.00,40.00,12,9,21,0.00
2013-7-18,102.0,90.1,76.0,-99.9,-99.9,-99.9,0,0,100,0.00,40.00,16,10,20,0.00
2013-7-19,102.0,86.1,76.0,-99.9,-99.9,-99.9,0,0,100,0.00,40.00,21,9,21,0.00
2013-7-20,93.0,83.8,74.0,-99.9,-99.9,-99.9,0,0,100,0.00,40.00,17,7,19,0.00
2013-7-21,88.0,82.1,76.0,-99.9,-99.9,-99.9,0,0,100,0.00,40.00,14,8,19,0.00
2013-7-22,94.0,83.4,73.0,-99.9,-99.9,-99.9,0,0,100,0.00,40.00,13,8,18,0.00
2013-7-23,94.0,83.4,71.0,-99.9,-99.9,-99.9,0,0,100,0.00,40.00,16,9,19,0.00
2013-7-24,102.0,84.8,75.0,-99.9,-99.9,-99.9,0,0,100,0.00,40.00,16,10,22,0.00
2013-7-25,105.0,94.1,74.0,-99.9,-99.9,-99.9,0,0,100,0.00,40.00,17,9,18,0.00
2013-7-26,98.0,86.9,75.0,-99.9,-99.9,-99.9,0,0,100,0.00,40.00,15,7,15,0.00
2013-7-27,102.0,87.6,76.0,-99.9,-99.9,-99.9,0,0,100,0.00,40.00,13,9,21,0.00
2013-7-28,98.0,80.4,69.0,-99.9,-99.9,-99.9,0,0,100,0.00,40.00,13,10,20,0.00
2013-7-29,96.0,81.0,71.0,-99.9,-99.9,-99.9,0,0,100,0.00,40.00,18,10,18,0.00
2013-7-30,96.0,79.6,69.0,-99.9,-99.9,-99.9,0,0,100,0.00,40.00,15,10,21,0.00
2013-7-31,96.0,79.6,69.0,-99.9,-99.9,-99.9,0,0,100,0.00,40.00,17,13,23,0.00
2013-8-1,91.0,77.2,63.0,-99.9,-99.9,-99.9,0,0,100,0.00,40.00,20,12,25,0.00
2013-8-2,94.0,77.4,65.0,-99.9,-99.9,-99.9,0,0,100,0.00,40.00,17,11,21,0.00
2013-8-3,98.0,80.5,64.0,-99.9,-99.9,-99.9,0,0,100,0.00,40.00,19,11,20,0.00
2013-8-4,98.0,81.4,71.0,-99.9,-99.9,-99.9,0,0,100,0.00,40.00,21,11,21,0.00
2013-8-5,98.0,83.5,73.0,-99.9,-99.9,-99.9,0,0,100,0.00,40.00,17,10,18,0.00
2013-8-6,96.0,79.0,67.0,-99.9,-99.9,-99.9,0,0,100,0.00,40.00,16,11,20,0.00
2013-8-7,96.0,79.0,69.0,-99.9,-99.9,-99.9,0,0,100,0.00,40.00,17,11,22,0.00
2013-8-8,96.0,82.7,69.0,-99.9,-99.9,-99.9,0,0,100,0.00,40.00,15,11,21,0.00
2013-8-9,95.0,79.6,69.0,-99.9,-99.9,-99.9,0,0,100,0.00,40.00,15,9,22,0.00
2013-8-10,92.0,77.7,63.0,-99.9,-99.9,-99.9,0,0,100,0.00,40.00,19,10,19,0.00
2013-8-11,99.0,83.3,64.0,-99.9,-99.9,-99.9,0,0,100,0.00,40.00,16,9,17,0.00
2013-8-12,98.0,82.0,66.0,-99.9,-99.9,-99.9,0,0,100,0.00,40.00,18,8,18,0.00
2013-8-13,99.0,80.1,72.0,-99.9,-99.9,-99.9,0,0,100,0.00,40.00,12,6,14,0.00
2013-8-14,110.0,84.4,73.0,-99.9,-99.9,-99.9,0,0,100,0.00,40.00,14,6,18,0.00
2013-8-15,108.0,86.9,77.0,-99.9,-99.9,-99.9,0,0,100,0.00,40.00,13,8,19,0.00
2013-8-16,105.0,89.2,80.0,-99.9,-99.9,-99.9,0,0,100,0.00,40.00,16,10,20,0.00
2013-8-17,106.0,90.5,80.0,-99.9,-99.9,-99.9,0,0,100,0.00,40.00,17,10,18,0.00
2013-8-18,108.0,90.1,80.0,-99.9,-99.9,-99.9,0,0,100,0.00,40.00,16,7,21,0.00
2013-8-19,99.0,85.1,80.0,-99.9,-99.9,-99.9,0,0,100,0.00,40.00,13,7,20,0.00
2013-8-20,105.0,90.8,76.0,-99.9,-99.9,-99.9,0,0,100,0.00,40.00,19,9,21,0.00
2013-8-21,104.0,89.4,78.0,-99.9,-99.9,-99.9,0,0,100,0.00,40.00,18,10,18,0.00
2013-8-22,106.0,95.1,83.0,-99.9,-99.9,-99.9,0,0,100,0.00,40.00,12,7,21,0.00
2013-8-23,107.0,89.2,76.0,-99.9,-99.9,-99.9,0,0,100,0.00,40.00,17,7,23,0.00
2013-8-24,99.0,82.4,77.0,-99.9,-99.9,-99.9,0,0,100,0.00,40.00,25,8,25,0.00
2013-8-25,93.0,81.6,74.0,-99.9,-99.9,-99.9,0,0,100,0.00,40.00,20,8,25,0.00
2013-8-26,86.0,79.0,72.0,-99.9,-99.9,-99.9,0,0,100,0.00,40.00,11,6,16,0.00
2013-11-4,53.0,51.6,49.0,-99.9,-99.9,-99.9,0,0,100,0.00,40.00,6,4,9,0.00
2013-11-5,68.0,56.8,45.0,-99.9,-99.9,-99.9,0,0,100,0.00,40.00,22,10,23,0.00
2013-11-6,74.0,62.4,55.0,-99.9,-99.9,-99.9,0,0,100,0.00,40.00,28,12,29,0.00
2013-11-7,77.0,65.9,58.0,-99.9,-99.9,-99.9,0,0,100,0.00,40.00,14,6,18,0.00
2013-11-8,83.0,67.6,55.0,-99.9,-99.9,-99.9,0,0,100,0.00,40.00,5,2,11,0.00
2013-11-9,80.0,63.6,52.0,-99.9,-99.9,-99.9,0,0,100,0.00,40.00,7,3,10,0.00
2013-11-10,80.0,66.4,53.0,-99.9,-99.9,-99.9,0,0,100,0.00,40.00,5,2,8,0.00
2013-11-11,83.0,69.1,54.0,-99.9,-99.9,-99.9,0,0,100,0.00,40.00,18,6,19,0.00
2013-11-12,84.0,72.9,53.0,-99.9,-99.9,-99.9,0,0,100,0.00,40.00,10,4,14,0.00
2013-11-13,84.0,71.8,65.0,-99.9,-99.9,-99.9,0,0,100,0.00,40.00,17,6,20,0.00
2013-11-14,86.0,71.6,66.0,-99.9,-99.9,-99.9,0,0,100,0.00,40.00,7,3,16,0.00
2013-11-15,66.0,57.7,54.0,-99.9,-99.9,-99.9,0,0,100,0.00,40.00,15,9,21,0.00
2013-11-16,54.0,53.1,51.0,-99.9,-99.9,-99.9,0,0,100,0.00,40.00,12,8,16,0.00
2013-11-17,68.0,56.3,47.0,-99.9,-99.9,-99.9,0,0,100,0.00,40.00,14,6,14,0.00
2013-11-18,68.0,55.0,47.0,-99.9,-99.9,-99.9,0,0,100,0.00,40.00,12,4,16,0.00
2013-11-19,58.0,54.1,52.0,-99.9,-99.9,-99.9,0,0,100,0.00,40.00,12,7,14,0.00
2013-11-20,58.0,54.2,51.0,-99.9,-99.9,-99.9,0,0,100,0.00,40.00,15,9,18,0.00
2013-11-21,61.0,54.6,52.0,-99.9,-99.9,-99.9,0,0,100,0.00,40.00,13,6,16,0.00
2013-11-22,55.0,49.6,46.0,-99.9,-99.9,-99.9,0,0,100,0.00,40.00,19,7,21,0.00
2013-11-23,59.0,49.6,45.0,-99.9,-99.9,-99.9,0,0,100,0.00,40.00,14,7,15,0.00
2013-11-24,61.0,51.6,44.0,-99.9,-99.9,-99.9,0,0,100,0.00,40.00,14,3,18,0.00
2013-11-25,72.0,57.5,47.0,-99.9,-99.9,-99.9,0,0,100,0.00,40.00,8,3,10,0.00
2013-11-26,67.0,58.2,55.0,-99.9,-99.9,-99.9,0,0,100,0.00,40.00,23,11,23,0.00
2013-11-27,65.0,58.7,51.0,-99.9,-99.9,-99.9,0,0,100,0.00,40.00,22,10,23,0.00
2013-11-28,66.0,57.4,49.0,-99.9,-99.9,-99.9,0,0,100,0.00,40.00,17,7,21,0.00
2013-11-29,63.0,56.2,51.0,-99.9,-99.9,-99.9,0,0,100,0.00,40.00,12,3,16,0.00
2013-11-30,73.0,59.6,51.0,-99.9,-99.9,-99.9,0,0,100,0.00,40.00,15,5,16,0.00
2013-12-1,73.0,60.2,52.0,-99.9,-99.9,-99.9,0,0,100,0.00,40.00,19,5,22,0.00
2013-12-2,73.0,60.9,51.0,-99.9,-99.9,-99.9,0,0,100,0.00,40.00,13,6,16,0.00
2013-12-3,62.0,55.6,51.0,-99.9,-99.9,-99.9,0,0,100,0.00,40.00,18,13,25,0.00
2013-12-4,55.0,48.3,43.0,-99.9,-99.9,-99.9,0,0,100,0.00,40.00,17,8,27,0.00
2013-12-5,54.0,45.1,39.0,-99.9,-99.9,-99.9,0,0,100,0.00,40.00,7,4,14,0.00
2013-12-6,51.0,44.9,39.0,-99.9,-99.9,-99.9,0,0,100,0.00,40.00,10,5,15,0.00
2013-12-7,48.0,42.9,41.0,-99.9,-99.9,-99.9,0,0,100,0.00,40.00,14,9,22,0.00
2013-12-8,52.0,44.4,40.0,-99.9,-99.9,-99.9,0,0,100,0.00,40.00,11,7,16,0.00
2013-12-9,47.0,41.5,35.0,-99.9,-99.9,-99.9,0,0,100,0.00,40.00,37,20,40,0.00
2013-12-10,56.0,46.3,40.0,-99.9,-99.9,-99.9,0,0,100,0.00,40.00,25,13,32,0.00
2013-12-11,64.0,53.1,43.0,-99.9,-99.9,-99.9,0,0,100,0.00,40.00,21,10,25,0.00
2013-12-12,68.0,57.6,50.0,-99.9,-99.9,-99.9,0,0,100,0.00,40.00,14,6,16,0.00
2013-12-13,63.0,52.2,44.0,-99.9,-99.9,-99.9,0,0,100,0.00,40.00,14,7,17,0.00
2013-12-14,66.0,60.1,54.0,-99.9,-99.9,-99.9,0,0,100,0.00,40.00,41,16,41,0.00
2013-12-15,73.0,63.0,56.0,-99.9,-99.9,-99.9,0,0,100,0.00,40.00,35,20,38,0.00
2013-12-16,76.0,66.3,60.0,-99.9,-99.9,-99.9,0,0,100,0.00,40.00,21,9,22,0.00
2013-12-17,78.0,68.4,63.0,-99.9,-99.9,-99.9,0,0,100,0.00,40.00,16,6,22,0.00
2013-12-18,71.0,62.6,51.0,-99.9,-99.9,-99.9,0,0,100,0.00,40.00,11,4,18,0.00
2013-12-19,51.0,47.4,44.0,-99.9,-99.9,-99.9,0,0,100,0.00,40.00,13,7,18,0.00
2013-12-20,57.0,48.1,40.0,-99.9,-99.9,-99.9,0,0,100,0.00,40.00,13,7,16,0.00
2013-12-21,56.0,48.8,44.0,-99.9,-99.9,-99.9,0,0,100,0.00,40.00,11,7,19,0.00
2013-12-22,67.0,55.6,43.0,-99.9,-99.9,-99.9,0,0,100,0.00,40.00,13,4,13,0.00
2013-12-23,69.0,57.6,50.0,-99.9,-99.9,-99.9,0,0,100,0.00,40.00,28,13,28,0.00
2013-12-24,74.0,62.6,52.0,-99.9,-99.9,-99.9,0,0,100,0.00,40.00,19,8,21,0.00
2013-12-25,71.0,63.6,58.0,-99.9,-99.9,-99.9,0,0,100,0.00,40.00,28,18,36,0.00
2013-12-26,72.0,63.9,58.0,-99.9,-99.9,-99.9,0,0,100,0.00,40.00,29,19,37,0.00
2013-12-27,76.0,63.7,56.0,-99.9,-99.9,-99.9,0,0,100,0.00,40.00,24,8,24,0.00
2013-12-28,72.0,57.0,49.0,-99.9,-99.9,-99.9,0,0,100,0.00,40.00,8,4,13,0.00
2013-12-29,65.0,56.1,45.0,-99.9,-99.9,-99.9,0,0,100,0.00,40.00,20,7,25,0.00
2013-12-30,71.0,56.2,47.0,-99.9,-99.9,-99.9,0,0,100,0.00,40.00,9,4,13,0.00
2013-12-31,70.0,55.7,47.0,-99.9,-99.9,-99.9,0,0,100,0.00,40.00,5,2,9,0.00
2014-1-1,73.0,63.0,50.0,-99.9,-99.9,-99.9,0,0,100,0.00,40.00,23,10,31,0.00
2014-1-2,74.0,61.8,55.0,-99.9,-99.9,-99.9,0,0,100,0.00,40.00,19,6,21,0.00